createdAt,value
2022-09-15T00:01:22.189Z,88.63
2022-09-15T00:03:50.751Z,87.96
2022-09-15T00:06:21.475Z,87.72
2022-09-15T00:08:49.761Z,88.26
2022-09-15T00:11:22.582Z,88.74
2022-09-15T00:13:52.814Z,88.73
2022-09-15T00:16:23.846Z,88.61
2022-09-15T00:18:52.143Z,88.21
2022-09-15T00:21:24.656Z,87.83
2022-09-15T00:23:52.920Z,88.36
2022-09-15T00:26:24.163Z,88.28
2022-09-15T00:28:52.522Z,87.98
2022-09-15T00:31:23.110Z,87.80
2022-09-15T00:33:52.652Z,87.93
2022-09-15T00:36:23.161Z,88.21
2022-09-15T00:38:52.527Z,88.51
2022-09-15T00:41:23.610Z,88.45
2022-09-15T00:43:56.140Z,88.84
2022-09-15T00:46:27.399Z,88.45
2022-09-15T00:49:01.139Z,88.59
2022-09-15T00:51:38.065Z,88.22
2022-09-15T00:54:10.129Z,88.05
2022-09-15T00:56:40.174Z,87.53
2022-09-15T00:59:13.108Z,87.44
2022-09-15T01:01:44.352Z,87.72
2022-09-15T01:04:13.090Z,87.47
2022-09-15T01:06:46.364Z,86.87
2022-09-15T01:09:19.078Z,86.59
2022-09-15T01:11:47.457Z,86.85
2022-09-15T01:14:15.914Z,86.76
2022-09-15T01:17:09.074Z,87.13
2022-09-15T01:19:56.244Z,87.47
2022-09-15T01:22:36.953Z,87.45
2022-09-15T01:25:09.815Z,87.66
2022-09-15T01:28:13.617Z,87.92
2022-09-15T01:30:47.285Z,88.09
2022-09-15T01:33:27.721Z,89.07
2022-09-15T01:36:04.405Z,89.61
2022-09-15T01:38:43.237Z,89.47
2022-09-15T01:41:17.381Z,89.40
2022-09-15T01:43:51.664Z,89.83
2022-09-15T01:46:24.178Z,89.09
2022-09-15T01:48:57.260Z,89.41
2022-09-15T01:51:26.935Z,89.48
2022-09-15T01:53:56.138Z,88.41
2022-09-15T01:56:24.204Z,88.26
2022-09-15T01:58:52.567Z,88.51
2022-09-15T02:01:31.948Z,88.22
2022-09-15T02:04:05.772Z,89.02
2022-09-15T02:06:44.921Z,89.33
2022-09-15T02:09:18.594Z,89.34
2022-09-15T02:11:53.375Z,88.69
2022-09-15T02:14:36.961Z,89.34
2022-09-15T02:17:06.602Z,89.72
2022-09-15T02:19:42.243Z,90.07
2022-09-15T02:22:13.372Z,89.51
2022-09-15T02:24:46.021Z,89.30
2022-09-15T02:27:20.406Z,88.61
2022-09-15T02:29:50.093Z,88.30
2022-09-15T02:32:23.658Z,88.92
2022-09-15T02:34:53.057Z,88.87
2022-09-15T02:37:23.035Z,88.84
2022-09-15T02:39:57.718Z,88.53
2022-09-15T02:42:26.814Z,88.72
2022-09-15T02:44:55.187Z,88.16
2022-09-15T02:47:28.326Z,87.68
2022-09-15T02:49:57.513Z,88.23
2022-09-15T02:52:25.545Z,87.68
2022-09-15T02:54:57.616Z,88.06
2022-09-15T02:57:25.737Z,87.17
2022-09-15T03:00:11.004Z,86.79
2022-09-15T03:02:50.032Z,86.56
2022-09-15T03:05:19.667Z,86.53
2022-09-15T03:07:50.060Z,86.57
2022-09-15T03:10:20.818Z,85.97
2022-09-15T03:12:54.822Z,85.73
2022-09-15T03:15:26.023Z,85.74
2022-09-15T03:17:59.713Z,85.77
2022-09-15T03:20:29.249Z,85.88
2022-09-15T03:22:57.358Z,86.12
2022-09-15T03:25:27.081Z,86.77
2022-09-15T03:28:00.241Z,87.59
2022-09-15T03:30:28.302Z,87.40
2022-09-15T03:32:56.379Z,88.28
2022-09-15T03:35:25.830Z,88.76
2022-09-15T03:37:54.835Z,89.04
2022-09-15T03:40:22.910Z,89.01
2022-09-15T03:42:51.006Z,89.02
2022-09-15T03:45:19.093Z,88.67
2022-09-15T03:47:47.267Z,88.93
2022-09-15T03:50:15.328Z,89.68
2022-09-15T03:52:46.147Z,88.97
2022-09-15T03:55:14.344Z,88.19
2022-09-15T03:57:42.554Z,88.06
2022-09-15T04:00:15.622Z,87.97
2022-09-15T04:02:43.928Z,87.65
2022-09-15T04:05:13.448Z,87.33
2022-09-15T04:07:41.831Z,87.49
2022-09-15T04:10:12.726Z,87.86
2022-09-15T04:12:40.879Z,87.64
2022-09-15T04:15:09.648Z,87.34
2022-09-15T04:17:37.712Z,87.25
2022-09-15T04:20:06.528Z,87.39
2022-09-15T04:22:34.973Z,87.32
2022-09-15T04:25:11.000Z,87.26
2022-09-15T04:27:40.508Z,87.06
2022-09-15T04:30:09.704Z,87.06
2022-09-15T04:32:41.736Z,86.73
2022-09-15T04:35:10.642Z,86.58
2022-09-15T04:37:38.690Z,86.56
2022-09-15T04:40:08.256Z,86.45
2022-09-15T04:42:36.439Z,87.08
2022-09-15T04:45:07.237Z,86.70
2022-09-15T04:47:37.319Z,87.35
2022-09-15T04:50:05.987Z,87.73
2022-09-15T04:52:36.599Z,88.20
2022-09-15T04:55:05.216Z,88.88
2022-09-15T04:57:34.619Z,87.98
2022-09-15T05:00:06.149Z,87.53
2022-09-15T05:02:35.724Z,88.08
2022-09-15T05:05:03.815Z,87.86
2022-09-15T05:07:33.869Z,87.44
2022-09-15T05:10:01.926Z,87.00
2022-09-15T05:12:30.937Z,86.70
2022-09-15T05:14:58.933Z,86.78
2022-09-15T05:17:27.630Z,86.96
2022-09-15T05:19:57.256Z,87.15
2022-09-15T05:22:25.402Z,87.63
2022-09-15T05:24:53.451Z,87.08
2022-09-15T05:27:21.794Z,87.24
2022-09-15T05:29:52.161Z,87.09
2022-09-15T05:32:28.533Z,87.29
2022-09-15T05:34:58.196Z,87.89
2022-09-15T05:37:26.291Z,87.44
2022-09-15T05:39:54.391Z,87.00
2022-09-15T05:42:22.521Z,86.49
2022-09-15T05:44:50.590Z,86.66
2022-09-15T05:47:20.664Z,86.79
2022-09-15T05:49:48.758Z,87.17
2022-09-15T05:52:19.309Z,87.08
2022-09-15T05:54:47.553Z,87.21
2022-09-15T05:57:15.614Z,87.23
2022-09-15T05:59:44.087Z,87.60
2022-09-15T06:02:12.384Z,87.42
2022-09-15T06:04:40.701Z,87.44
2022-09-15T06:07:08.690Z,86.85
2022-09-15T06:09:39.496Z,87.08
2022-09-15T06:12:07.926Z,87.41
2022-09-15T06:14:36.030Z,87.31
2022-09-15T06:17:04.093Z,87.19
2022-09-15T06:19:32.185Z,86.91
2022-09-15T06:22:00.267Z,87.00
2022-09-15T06:24:28.486Z,86.20
2022-09-15T06:26:58.008Z,86.08
2022-09-15T06:29:27.140Z,86.35
2022-09-15T06:31:55.297Z,85.87
2022-09-15T06:37:09.624Z,85.88
2022-09-15T06:39:37.877Z,86.20
2022-09-15T06:42:09.452Z,86.24
2022-09-15T06:44:37.691Z,86.13
2022-09-15T06:47:07.356Z,86.19
2022-09-15T06:49:35.502Z,86.04
2022-09-15T06:52:05.198Z,86.39
2022-09-15T06:54:33.314Z,87.09
2022-09-15T06:57:01.669Z,87.40
2022-09-15T06:59:31.231Z,86.39
2022-09-15T07:02:04.045Z,85.67
2022-09-15T07:04:33.104Z,84.86
2022-09-15T07:07:01.155Z,84.81
2022-09-15T07:09:29.219Z,84.64
2022-09-15T07:11:57.319Z,84.91
2022-09-15T07:14:25.431Z,85.29
2022-09-15T07:16:54.873Z,84.64
2022-09-15T07:19:22.969Z,85.19
2022-09-15T07:21:52.935Z,84.84
2022-09-15T07:24:21.744Z,83.17
2022-09-15T07:26:52.138Z,82.66
2022-09-15T07:29:20.143Z,81.70
2022-09-15T07:31:48.416Z,80.22
2022-09-15T07:34:18.220Z,78.27
2022-09-15T07:36:46.277Z,78.30
2022-09-15T07:39:14.408Z,74.81
2022-09-15T07:41:42.433Z,77.94
2022-09-15T07:44:11.972Z,75.59
2022-09-15T07:46:42.047Z,75.41
2022-09-15T07:49:11.559Z,76.04
2022-09-15T07:51:41.061Z,75.29
2022-09-15T07:54:09.202Z,73.77
2022-09-15T07:56:37.293Z,72.09
2022-09-15T07:59:05.520Z,71.41
2022-09-15T08:01:33.617Z,72.10
2022-09-15T08:04:01.902Z,71.75
2022-09-15T08:06:30.180Z,69.02
2022-09-15T08:09:00.899Z,69.75
2022-09-15T08:11:29.712Z,69.79
2022-09-15T08:13:59.779Z,71.85
2022-09-15T08:16:28.087Z,67.72
2022-09-15T08:18:57.128Z,68.86
2022-09-15T08:21:25.873Z,68.67
2022-09-15T08:23:55.356Z,67.65
2022-09-15T08:26:25.709Z,67.08
2022-09-15T08:28:56.287Z,67.88
2022-09-15T08:31:27.160Z,67.95
2022-09-15T08:33:56.620Z,67.26
2022-09-15T08:36:28.038Z,66.61
2022-09-15T08:38:56.490Z,67.12
2022-09-15T08:41:30.768Z,65.70
2022-09-15T08:44:05.436Z,65.15
2022-09-15T08:46:38.378Z,64.40
2022-09-15T08:49:14.733Z,62.82
2022-09-15T08:51:47.969Z,63.84
2022-09-15T08:54:21.687Z,63.23
2022-09-15T08:56:52.174Z,61.91
2022-09-15T08:59:21.505Z,63.56
2022-09-15T09:02:18.251Z,62.71
2022-09-15T09:05:00.045Z,61.34
2022-09-15T09:07:43.339Z,59.80
2022-09-15T09:10:17.127Z,61.79
2022-09-15T09:12:59.799Z,61.28
2022-09-15T09:15:37.819Z,59.71
2022-09-15T09:18:33.975Z,61.39
2022-09-15T09:21:05.460Z,58.21
2022-09-15T09:23:37.847Z,59.20
2022-09-15T09:26:10.359Z,58.48
2022-09-15T09:28:47.179Z,57.29
2022-09-15T09:31:20.476Z,56.59
2022-09-15T09:33:54.573Z,55.10
2022-09-15T09:36:22.945Z,53.79
2022-09-15T09:38:52.190Z,54.22
2022-09-15T09:41:25.984Z,54.95
2022-09-15T09:43:57.605Z,54.05
2022-09-15T09:46:26.781Z,54.22
2022-09-15T09:48:59.801Z,54.78
2022-09-15T09:51:32.876Z,53.82
2022-09-15T09:54:12.949Z,54.36
2022-09-15T09:56:41.545Z,54.59
2022-09-15T09:59:33.803Z,53.94
2022-09-15T10:02:16.913Z,52.73
2022-09-15T10:04:46.307Z,53.23
2022-09-15T10:07:16.219Z,52.16
2022-09-15T10:09:52.665Z,53.90
2022-09-15T10:12:24.852Z,52.89
2022-09-15T10:14:57.897Z,52.86
2022-09-15T10:17:28.288Z,55.15
2022-09-15T10:19:58.119Z,54.22
2022-09-15T10:22:29.688Z,55.02
2022-09-15T10:24:58.387Z,51.81
2022-09-15T10:27:34.407Z,52.69
2022-09-15T10:30:18.706Z,53.08
2022-09-15T10:32:46.876Z,52.88
2022-09-15T10:35:16.764Z,52.89
2022-09-15T10:38:04.922Z,54.44
2022-09-15T10:40:39.397Z,52.43
2022-09-15T10:43:20.885Z,54.89
2022-09-15T10:45:55.007Z,53.60
2022-09-15T10:48:42.683Z,53.19
2022-09-15T10:51:22.950Z,54.12
2022-09-15T10:54:03.371Z,53.90
2022-09-15T10:56:35.189Z,53.87
2022-09-15T10:59:21.415Z,55.44
2022-09-15T11:02:10.568Z,55.41
2022-09-15T11:04:47.505Z,55.02
2022-09-15T11:07:25.021Z,54.32
2022-09-15T11:10:03.037Z,55.47
2022-09-15T11:12:43.620Z,55.04
2022-09-15T11:15:26.365Z,56.54
2022-09-15T11:18:11.252Z,56.59
2022-09-15T11:20:58.445Z,57.27
2022-09-15T11:23:33.730Z,57.49
2022-09-15T11:26:08.344Z,57.29
2022-09-15T11:28:42.772Z,58.63
2022-09-15T11:31:18.220Z,58.38
2022-09-15T11:33:54.827Z,59.22
2022-09-15T11:36:29.498Z,60.89
2022-09-15T11:39:05.103Z,63.10
2022-09-15T11:41:38.375Z,64.33
2022-09-15T11:44:22.058Z,66.31
2022-09-15T11:47:14.874Z,66.51
2022-09-15T11:49:50.056Z,66.99
2022-09-15T11:52:41.190Z,67.23
2022-09-15T11:55:21.858Z,69.59
2022-09-15T11:57:58.383Z,72.54
2022-09-15T12:00:26.480Z,75.61
2022-09-15T12:03:01.640Z,76.17
2022-09-15T12:05:33.222Z,80.09
2022-09-15T12:08:06.234Z,80.17
2022-09-15T12:10:39.602Z,79.74
2022-09-15T12:13:09.020Z,80.10
2022-09-15T12:15:38.271Z,82.40
2022-09-15T12:18:37.745Z,61.27
2022-09-15T12:21:16.443Z,66.92
2022-09-15T12:23:51.976Z,67.94
2022-09-15T12:26:21.936Z,73.47
2022-09-15T12:28:58.509Z,74.24
2022-09-15T12:31:33.787Z,77.42
2022-09-15T12:34:03.683Z,78.71
2022-09-15T12:36:40.030Z,80.75
2022-09-15T12:39:23.514Z,82.36
2022-09-15T12:41:55.427Z,81.79
2022-09-15T12:44:37.468Z,81.45
2022-09-15T12:47:18.765Z,81.14
2022-09-15T12:49:48.968Z,81.01
2022-09-15T12:52:23.943Z,81.84
2022-09-15T12:54:55.668Z,81.67
2022-09-15T12:57:28.507Z,77.77
2022-09-15T13:00:28.880Z,79.33
2022-09-15T13:02:59.733Z,80.55
2022-09-15T13:05:55.125Z,78.10
2022-09-15T13:08:56.712Z,80.86
2022-09-15T13:11:40.574Z,81.17
2022-09-15T13:14:22.493Z,79.05
2022-09-15T13:16:55.546Z,79.40
2022-09-15T13:19:30.610Z,79.47
2022-09-15T13:22:04.522Z,81.81
2022-09-15T13:24:47.913Z,82.93
2022-09-15T13:27:22.176Z,83.90
2022-09-15T13:29:53.763Z,82.74
2022-09-15T13:32:36.688Z,82.65
2022-09-15T13:35:32.240Z,82.77
2022-09-15T13:38:31.666Z,83.63
2022-09-15T13:41:32.935Z,84.02
2022-09-15T13:44:21.118Z,85.19
2022-09-15T13:47:03.757Z,84.00
2022-09-15T13:49:52.727Z,84.48
2022-09-15T13:52:36.239Z,84.75
2022-09-15T13:55:27.881Z,85.83
2022-09-15T14:00:59.992Z,87.51
2022-09-15T14:03:38.016Z,88.77
2022-09-15T14:06:13.685Z,88.37
2022-09-15T14:08:44.577Z,86.97
2022-09-15T14:11:16.899Z,87.03
2022-09-15T14:13:48.777Z,87.82
2022-09-15T14:16:24.954Z,88.43
2022-09-15T14:19:00.243Z,88.71
2022-09-15T14:21:32.157Z,88.36
2022-09-15T14:24:06.207Z,89.27
2022-09-15T14:26:37.468Z,90.11
2022-09-15T14:29:16.212Z,90.07
2022-09-15T14:31:45.008Z,90.99
2022-09-15T14:34:18.241Z,90.98
2022-09-15T14:37:00.391Z,90.79
2022-09-15T14:39:29.929Z,90.35
2022-09-15T14:47:31.416Z,88.88
2022-09-15T14:50:13.296Z,87.79
2022-09-15T14:52:46.770Z,87.47
2022-09-15T14:55:23.324Z,88.24
2022-09-15T14:57:57.633Z,88.60
2022-09-15T15:00:32.204Z,88.81
2022-09-15T15:03:16.170Z,88.98
2022-09-15T15:05:54.677Z,89.30
2022-09-15T15:08:36.141Z,89.85
2022-09-15T15:11:12.927Z,89.73
2022-09-15T15:13:52.132Z,90.15
2022-09-15T15:16:27.854Z,91.97
2022-09-15T15:18:58.994Z,91.31
2022-09-15T15:21:37.423Z,91.18
2022-09-15T15:24:25.600Z,90.29
2022-09-15T15:26:53.968Z,89.80
2022-09-15T15:29:44.299Z,89.42
2022-09-15T15:32:16.194Z,89.77
2022-09-15T15:34:52.368Z,89.72
2022-09-15T15:37:26.779Z,89.71
2022-09-15T15:39:57.177Z,89.26
2022-09-15T15:42:30.657Z,89.14
2022-09-15T15:45:06.286Z,89.19
2022-09-15T15:47:38.764Z,89.24
2022-09-15T15:50:14.256Z,88.87
2022-09-15T15:52:44.044Z,89.25
2022-09-15T15:55:16.083Z,88.73
2022-09-15T15:57:45.588Z,88.77
2022-09-15T16:00:21.741Z,88.69
2022-09-15T16:02:55.882Z,90.46
2022-09-15T16:05:29.226Z,89.58
2022-09-15T16:08:02.593Z,89.21
2022-09-15T16:10:39.774Z,88.83
2022-09-15T16:13:11.187Z,88.73
2022-09-15T16:15:41.426Z,88.65
2022-09-15T16:18:11.380Z,88.80
2022-09-15T16:20:40.351Z,88.55
2022-09-15T16:23:15.052Z,87.98
2022-09-15T16:25:55.884Z,88.32
2022-09-15T16:28:25.122Z,87.98
2022-09-15T16:30:53.377Z,86.93
2022-09-15T16:33:23.067Z,87.55
2022-09-15T16:35:55.224Z,88.12
2022-09-15T16:38:25.924Z,88.32
2022-09-15T16:40:56.147Z,88.30
2022-09-15T16:43:25.911Z,88.00
2022-09-15T16:45:54.735Z,87.35
2022-09-15T16:48:25.392Z,86.63
2022-09-15T16:51:20.344Z,86.36
2022-09-15T16:53:47.693Z,86.38
2022-09-15T16:56:16.818Z,86.30
2022-09-15T16:58:45.166Z,86.10
2022-09-15T17:01:18.221Z,85.51
2022-09-15T17:03:49.385Z,85.57
2022-09-15T17:06:19.142Z,85.25
2022-09-15T17:08:47.355Z,85.88
2022-09-15T17:11:17.091Z,86.18
2022-09-15T17:13:46.344Z,86.10
2022-09-15T17:16:16.355Z,86.26
2022-09-15T17:18:44.589Z,86.37
2022-09-15T17:21:20.278Z,87.17
2022-09-15T17:23:50.559Z,87.15
2022-09-15T17:26:25.483Z,87.16
2022-09-15T17:28:57.867Z,86.46
2022-09-15T17:31:28.312Z,86.41
2022-09-15T17:33:56.688Z,87.95
2022-09-15T17:36:26.738Z,88.22
2022-09-15T17:38:55.670Z,87.12
2022-09-15T17:41:23.805Z,86.62
2022-09-15T17:43:53.036Z,86.77
2022-09-15T17:46:21.450Z,86.77
2022-09-15T17:48:49.615Z,86.46
2022-09-15T17:51:19.157Z,86.25
2022-09-15T17:53:55.195Z,86.86
2022-09-15T17:56:23.446Z,86.92
2022-09-15T17:58:51.741Z,87.01
2022-09-15T18:01:20.159Z,87.20
2022-09-15T18:03:48.924Z,87.60
2022-09-15T18:06:18.221Z,90.49
2022-09-15T18:08:46.725Z,90.38
2022-09-15T18:11:21.782Z,90.02
2022-09-15T18:13:50.322Z,89.96
2022-09-15T18:16:19.003Z,89.78
2022-09-15T18:18:47.804Z,88.90
2022-09-15T18:21:26.189Z,88.92
2022-09-15T18:23:55.351Z,89.74
2022-09-15T18:26:26.870Z,89.87
2022-09-15T18:28:57.187Z,89.15
2022-09-15T18:31:27.065Z,88.68
2022-09-15T18:34:00.228Z,88.53
2022-09-15T18:36:28.351Z,88.25
2022-09-15T18:38:58.889Z,87.74
2022-09-15T18:41:29.898Z,88.02
2022-09-15T18:43:59.407Z,88.55
2022-09-15T18:46:28.581Z,90.01
2022-09-15T18:48:57.614Z,89.55
2022-09-15T18:51:40.968Z,89.99
2022-09-15T18:54:14.278Z,89.84
2022-09-15T18:56:44.062Z,89.28
2022-09-15T18:59:17.448Z,90.22
2022-09-15T19:01:46.671Z,89.62
2022-09-15T19:04:15.324Z,90.77
2022-09-15T19:06:43.701Z,90.36
2022-09-15T19:09:12.304Z,90.86
2022-09-15T19:11:41.110Z,91.15
2022-09-15T19:14:10.640Z,90.59
2022-09-15T19:16:56.438Z,89.97
2022-09-15T19:19:26.149Z,89.75
2022-09-15T19:21:54.755Z,89.64
2022-09-15T19:24:23.276Z,89.89
2022-09-15T19:26:51.759Z,89.62
2022-09-15T19:29:21.568Z,89.38
2022-09-15T19:31:51.593Z,89.84
2022-09-15T19:34:19.984Z,90.28
2022-09-15T19:36:48.627Z,90.34
2022-09-15T19:39:17.082Z,90.08
2022-09-15T19:41:46.842Z,90.30
2022-09-15T19:44:16.296Z,89.98
2022-09-15T19:46:48.482Z,90.04
2022-09-15T19:49:19.060Z,90.03
2022-09-15T19:51:53.230Z,90.26
2022-09-15T19:54:21.546Z,90.50
2022-09-15T19:56:49.743Z,90.63
2022-09-15T19:59:22.130Z,89.80
2022-09-15T20:01:52.851Z,90.11
2022-09-15T20:07:06.506Z,89.76
2022-09-15T20:09:34.701Z,90.45
2022-09-15T20:12:03.893Z,90.78
2022-09-15T20:14:33.144Z,90.82
2022-09-15T20:17:03.925Z,90.93
2022-09-15T20:19:32.100Z,91.34
2022-09-15T20:22:00.397Z,91.50
2022-09-15T20:24:28.631Z,91.35
2022-09-15T20:26:58.994Z,91.24
2022-09-15T20:29:32.207Z,90.77
2022-09-15T20:32:01.359Z,90.33
2022-09-15T20:34:30.832Z,89.75
2022-09-15T20:36:59.039Z,90.06
2022-09-15T20:39:27.317Z,89.70
2022-09-15T20:41:56.267Z,89.39
2022-09-15T20:44:25.599Z,89.53
2022-09-15T20:46:54.069Z,89.30
2022-09-15T20:49:22.177Z,89.48
2022-09-15T20:51:51.717Z,89.34
2022-09-15T20:54:19.862Z,88.92
2022-09-15T20:56:49.001Z,88.59
2022-09-15T20:59:21.167Z,89.97
2022-09-15T21:01:50.418Z,90.45
2022-09-15T21:04:19.122Z,89.97
2022-09-15T21:06:47.165Z,90.23
2022-09-15T21:09:17.819Z,90.02
2022-09-15T21:11:49.083Z,90.76
2022-09-15T21:14:19.734Z,91.17
2022-09-15T21:16:47.848Z,91.42
2022-09-15T21:19:18.215Z,90.87
2022-09-15T21:21:46.425Z,91.16
2022-09-15T21:24:15.806Z,91.24
2022-09-15T21:27:03.638Z,91.12
2022-09-15T21:29:33.808Z,91.34
2022-09-15T21:32:03.318Z,91.50
2022-09-15T21:34:31.762Z,91.16
2022-09-15T21:37:00.136Z,91.46
2022-09-15T21:39:28.257Z,91.33
2022-09-15T21:41:57.782Z,91.51
2022-09-15T21:44:25.959Z,90.96
2022-09-15T21:46:54.839Z,90.84
2022-09-15T21:49:22.963Z,90.84
2022-09-15T21:51:51.475Z,90.70
2022-09-15T21:54:19.543Z,91.17
2022-09-15T21:56:47.626Z,91.28
2022-09-15T21:59:18.196Z,91.14
2022-09-15T22:01:50.647Z,91.33
2022-09-15T22:04:18.917Z,90.65
2022-09-15T22:06:50.160Z,90.53
2022-09-15T22:09:21.481Z,90.32
2022-09-15T22:11:50.272Z,90.22
2022-09-15T22:14:21.537Z,90.50
2022-09-15T22:16:50.306Z,90.12
2022-09-15T22:19:18.504Z,90.00
2022-09-15T22:21:49.790Z,89.81
2022-09-15T22:24:19.527Z,90.16
2022-09-15T22:26:47.624Z,90.43
2022-09-15T22:29:16.690Z,90.56
2022-09-15T22:31:46.267Z,90.64
2022-09-15T22:34:14.378Z,90.91
2022-09-15T22:36:42.508Z,91.24
2022-09-15T22:39:13.834Z,91.23
2022-09-15T22:41:43.079Z,90.73
2022-09-15T22:44:19.000Z,90.89
2022-09-15T22:46:51.433Z,90.90
2022-09-15T22:49:21.605Z,90.75
2022-09-15T22:51:49.756Z,90.98
2022-09-15T22:54:17.930Z,90.75
2022-09-15T22:56:47.248Z,90.08
2022-09-15T22:59:25.542Z,90.35
2022-09-15T23:01:57.977Z,90.40
2022-09-15T23:04:27.282Z,90.15
2022-09-15T23:06:55.386Z,89.86
2022-09-15T23:09:25.688Z,90.30
2022-09-15T23:11:55.985Z,89.82
2022-09-15T23:14:24.058Z,89.87
2022-09-15T23:16:52.129Z,89.77
2022-09-15T23:19:27.595Z,89.83
2022-09-15T23:21:56.653Z,89.69
2022-09-15T23:24:25.988Z,89.54
2022-09-15T23:26:54.168Z,89.02
2022-09-15T23:29:26.186Z,89.33
2022-09-15T23:31:54.895Z,89.28
2022-09-15T23:34:23.146Z,89.54
2022-09-15T23:36:52.684Z,89.31
2022-09-15T23:39:20.829Z,89.17
2022-09-15T23:41:50.948Z,90.03
2022-09-15T23:44:19.377Z,88.98
2022-09-15T23:46:47.649Z,89.12
2022-09-15T23:49:18.684Z,89.64
2022-09-15T23:51:47.026Z,89.02
2022-09-15T23:54:18.617Z,89.04
2022-09-15T23:56:47.727Z,89.67
2022-09-15T23:59:18.061Z,89.65
